sensor_id;sensor_type;location;lat;lon;timestamp;pressure;altitude;pressure_sealevel;temperature;humidity
11041;BME280;5573;49.592;8.662;2023-12-20T00:00:17;100008.88;;;4.40;100.00
11041;BME280;5573;49.592;8.662;2023-12-20T00:02:45;100002.13;;;4.46;100.00
11041;BME280;5573;49.592;8.662;2023-12-20T00:05:13;100006.06;;;4.42;100.00
11041;BME280;5573;49.592;8.662;2023-12-20T00:07:41;100003.59;;;4.48;100.00
11041;BME280;5573;49.592;8.662;2023-12-20T00:10:09;99990.59;;;4.47;100.00
11041;BME280;5573;49.592;8.662;2023-12-20T00:12:41;99999.00;;;4.42;100.00
11041;BME280;5573;49.592;8.662;2023-12-20T00:15:09;99984.81;;;4.35;100.00
11041;BME280;5573;49.592;8.662;2023-12-20T00:17:37;99989.41;;;4.41;100.00
11041;BME280;5573;49.592;8.662;2023-12-20T00:20:05;99986.44;;;4.44;100.00
11041;BME280;5573;49.592;8.662;2023-12-20T00:22:34;99983.50;;;4.39;100.00
11041;BME280;5573;49.592;8.662;2023-12-20T00:25:02;99984.97;;;4.42;100.00
11041;BME280;5573;49.592;8.662;2023-12-20T00:27:30;99986.44;;;4.44;100.00
11041;BME280;5573;49.592;8.662;2023-12-20T00:29:59;99984.31;;;4.39;100.00
11041;BME280;5573;49.592;8.662;2023-12-20T00:32:27;99982.50;;;4.40;100.00
11041;BME280;5573;49.592;8.662;2023-12-20T00:34:55;99980.53;;;4.42;100.00
11041;BME280;5573;49.592;8.662;2023-12-20T00:37:22;99981.00;;;4.46;100.00
11041;BME280;5573;49.592;8.662;2023-12-20T00:39:50;99977.06;;;4.42;100.00
11041;BME280;5573;49.592;8.662;2023-12-20T00:42:18;99976.22;;;4.41;100.00
11041;BME280;5573;49.592;8.662;2023-12-20T00:44:46;99965.69;;;4.49;100.00
11041;BME280;5573;49.592;8.662;2023-12-20T00:47:15;99970.63;;;4.44;100.00
11041;BME280;5573;49.592;8.662;2023-12-20T00:49:43;99971.28;;;4.46;100.00
11041;BME280;5573;49.592;8.662;2023-12-20T00:52:11;99968.47;;;4.39;100.00
11041;BME280;5573;49.592;8.662;2023-12-20T00:54:38;99963.38;;;4.46;100.00
11041;BME280;5573;49.592;8.662;2023-12-20T00:57:06;99966.00;;;4.46;100.00
11041;BME280;5573;49.592;8.662;2023-12-20T00:59:34;99964.19;;;4.47;100.00
11041;BME280;5573;49.592;8.662;2023-12-20T01:02:02;99958.75;;;4.48;100.00
11041;BME280;5573;49.592;8.662;2023-12-20T01:04:32;99971.44;;;4.45;100.00
11041;BME280;5573;49.592;8.662;2023-12-20T01:07:00;99961.72;;;4.45;100.00
11041;BME280;5573;49.592;8.662;2023-12-20T01:09:27;99956.09;;;4.48;100.00
11041;BME280;5573;49.592;8.662;2023-12-20T01:11:55;99953.66;;;4.47;100.00
11041;BME280;5573;49.592;8.662;2023-12-20T01:14:23;99960.91;;;4.45;100.00
11041;BME280;5573;49.592;8.662;2023-12-20T01:16:51;99957.41;;;4.52;100.00
11041;BME280;5573;49.592;8.662;2023-12-20T01:19:19;99960.22;;;4.51;100.00
11041;BME280;5573;49.592;8.662;2023-12-20T01:21:49;99950.84;;;4.48;100.00
11041;BME280;5573;49.592;8.662;2023-12-20T01:24:16;99952.78;;;4.54;100.00
11041;BME280;5573;49.592;8.662;2023-12-20T01:26:44;99950.34;;;4.53;100.00
11041;BME280;5573;49.592;8.662;2023-12-20T01:29:12;99951.47;;;4.58;100.00
11041;BME280;5573;49.592;8.662;2023-12-20T01:31:40;99946.88;;;4.52;100.00
11041;BME280;5573;49.592;8.662;2023-12-20T01:34:08;99945.56;;;4.48;100.00
11041;BME280;5573;49.592;8.662;2023-12-20T01:36:36;99936.19;;;4.46;100.00
11041;BME280;5573;49.592;8.662;2023-12-20T01:39:05;99950.16;;;4.54;100.00
11041;BME280;5573;49.592;8.662;2023-12-20T01:41:50;99957.91;;;4.48;100.00
11041;BME280;5573;49.592;8.662;2023-12-20T01:44:17;99962.34;;;4.55;100.00
11041;BME280;5573;49.592;8.662;2023-12-20T01:46:45;99957.28;;;4.46;100.00
11041;BME280;5573;49.592;8.662;2023-12-20T01:49:14;99966.16;;;4.53;100.00
11041;BME280;5573;49.592;8.662;2023-12-20T01:51:42;99959.06;;;4.53;100.00
11041;BME280;5573;49.592;8.662;2023-12-20T01:54:12;99956.09;;;4.48;100.00
11041;BME280;5573;49.592;8.662;2023-12-20T01:56:40;99951.31;;;4.52;100.00
11041;BME280;5573;49.592;8.662;2023-12-20T01:59:08;99953.94;;;4.52;100.00
11041;BME280;5573;49.592;8.662;2023-12-20T02:01:36;99943.72;;;4.57;100.00
11041;BME280;5573;49.592;8.662;2023-12-20T02:04:04;99946.53;;;4.55;100.00
11041;BME280;5573;49.592;8.662;2023-12-20T02:06:33;99948.19;;;4.56;100.00
11041;BME280;5573;49.592;8.662;2023-12-20T02:09:02;99949.84;;;4.57;100.00
11041;BME280;5573;49.592;8.662;2023-12-20T02:11:31;99955.59;;;4.61;100.00
11041;BME280;5573;49.592;8.662;2023-12-20T02:13:59;99959.38;;;4.58;100.00
11041;BME280;5573;49.592;8.662;2023-12-20T02:16:27;99953.78;;;4.53;100.00
11041;BME280;5573;49.592;8.662;2023-12-20T02:18:54;99944.25;;;4.44;100.00
11041;BME280;5573;49.592;8.662;2023-12-20T02:21:31;99953.94;;;4.52;100.00
11041;BME280;5573;49.592;8.662;2023-12-20T02:23:59;99951.16;;;4.61;100.00
11041;BME280;5573;49.592;8.662;2023-12-20T02:26:27;99949.84;;;4.57;100.00
11041;BME280;5573;49.592;8.662;2023-12-20T02:28:55;99942.22;;;4.54;100.00
11041;BME280;5573;49.592;8.662;2023-12-20T02:31:23;99944.22;;;4.52;100.00
11041;BME280;5573;49.592;8.662;2023-12-20T02:33:51;99950.31;;;4.61;100.00
11041;BME280;5573;49.592;8.662;2023-12-20T02:36:19;99946.19;;;4.58;100.00
11041;BME280;5573;49.592;8.662;2023-12-20T02:38:48;99952.13;;;4.60;100.00
11041;BME280;5573;49.592;8.662;2023-12-20T02:41:17;99961.22;;;4.58;100.00
11041;BME280;5573;49.592;8.662;2023-12-20T02:43:45;99953.47;;;4.56;100.00
11041;BME280;5573;49.592;8.662;2023-12-20T02:46:15;99959.56;;;4.57;100.00
11041;BME280;5573;49.592;8.662;2023-12-20T02:48:43;99944.06;;;4.54;100.00
11041;BME280;5573;49.592;8.662;2023-12-20T02:51:12;99934.66;;;4.51;100.00
11041;BME280;5573;49.592;8.662;2023-12-20T02:53:39;99936.94;;;4.54;100.00
11041;BME280;5573;49.592;8.662;2023-12-20T02:56:08;99930.69;;;4.55;100.00
11041;BME280;5573;49.592;8.662;2023-12-20T02:58:36;99929.72;;;4.48;100.00
11041;BME280;5573;49.592;8.662;2023-12-20T03:01:04;99941.59;;;4.52;100.00
11041;BME280;5573;49.592;8.662;2023-12-20T03:03:32;99940.75;;;4.52;100.00
11041;BME280;5573;49.592;8.662;2023-12-20T03:06:00;99947.22;;;4.49;100.00
11041;BME280;5573;49.592;8.662;2023-12-20T03:08:28;99944.72;;;4.56;100.00
11041;BME280;5573;49.592;8.662;2023-12-20T03:10:58;99944.22;;;4.52;100.00
11041;BME280;5573;49.592;8.662;2023-12-20T03:13:28;99936.16;;;4.54;100.00
11041;BME280;5573;49.592;8.662;2023-12-20T03:15:56;99937.63;;;4.56;100.00
11041;BME280;5573;49.592;8.662;2023-12-20T03:18:24;99951.31;;;4.52;100.00
11041;BME280;5573;49.592;8.662;2023-12-20T03:20:51;99943.25;;;4.53;100.00
11041;BME280;5573;49.592;8.662;2023-12-20T03:23:19;99946.88;;;4.44;100.00
11041;BME280;5573;49.592;8.662;2023-12-20T03:25:47;99956.78;;;4.50;100.00
11041;BME280;5573;49.592;8.662;2023-12-20T03:28:15;99958.09;;;4.46;100.00
11041;BME280;5573;49.592;8.662;2023-12-20T03:30:44;99952.13;;;4.52;100.00
11041;BME280;5573;49.592;8.662;2023-12-20T03:33:12;99951.81;;;4.47;100.00
11041;BME280;5573;49.592;8.662;2023-12-20T03:35:40;99961.56;;;4.47;100.00
11041;BME280;5573;49.592;8.662;2023-12-20T03:38:08;99967.63;;;4.55;100.00
11041;BME280;5573;49.592;8.662;2023-12-20T03:40:36;99962.53;;;4.54;100.00
11041;BME280;5573;49.592;8.662;2023-12-20T03:43:04;99948.69;;;4.52;100.00
11041;BME280;5573;49.592;8.662;2023-12-20T03:45:31;99953.31;;;4.50;100.00
11041;BME280;5573;49.592;8.662;2023-12-20T03:48:00;99941.75;;;4.51;100.00
11041;BME280;5573;49.592;8.662;2023-12-20T03:50:28;99950.50;;;4.51;100.00
11041;BME280;5573;49.592;8.662;2023-12-20T03:52:56;99957.06;;;4.55;100.00
11041;BME280;5573;49.592;8.662;2023-12-20T03:55:24;99952.13;;;4.52;100.00
11041;BME280;5573;49.592;8.662;2023-12-20T03:57:52;99950.84;;;4.48;100.00
11041;BME280;5573;49.592;8.662;2023-12-20T04:00:20;99949.16;;;4.47;100.00
11041;BME280;5573;49.592;8.662;2023-12-20T04:02:47;99949.03;;;4.49;100.00
11041;BME280;5573;49.592;8.662;2023-12-20T04:05:17;99954.44;;;4.55;100.00
11041;BME280;5573;49.592;8.662;2023-12-20T04:07:45;99953.47;;;4.48;100.00
11041;BME280;5573;49.592;8.662;2023-12-20T04:10:13;99954.13;;;4.50;100.00
11041;BME280;5573;49.592;8.662;2023-12-20T04:12:41;99954.78;;;4.52;100.00
11041;BME280;5573;49.592;8.662;2023-12-20T04:15:09;99959.22;;;4.52;100.00
11041;BME280;5573;49.592;8.662;2023-12-20T04:17:39;99965.66;;;4.57;100.00
11041;BME280;5573;49.592;8.662;2023-12-20T04:20:07;99965.97;;;4.54;100.00
11041;BME280;5573;49.592;8.662;2023-12-20T04:22:37;99963.03;;;4.49;100.00
11041;BME280;5573;49.592;8.662;2023-12-20T04:25:05;99966.66;;;4.56;100.00
11041;BME280;5573;49.592;8.662;2023-12-20T04:27:33;99967.31;;;4.50;100.00
11041;BME280;5573;49.592;8.662;2023-12-20T04:30:01;99965.81;;;4.48;100.00
11041;BME280;5573;49.592;8.662;2023-12-20T04:32:29;99974.56;;;4.48;100.00
11041;BME280;5573;49.592;8.662;2023-12-20T04:34:56;99976.88;;;4.51;100.00
11041;BME280;5573;49.592;8.662;2023-12-20T04:37:25;99975.53;;;4.55;100.00
11041;BME280;5573;49.592;8.662;2023-12-20T04:39:54;99981.50;;;4.57;100.00
11041;BME280;5573;49.592;8.662;2023-12-20T04:42:22;99984.13;;;4.57;100.00
11041;BME280;5573;49.592;8.662;2023-12-20T04:44:49;99984.97;;;4.58;100.00
11041;BME280;5573;49.592;8.662;2023-12-20T04:47:17;99991.34;;;4.63;100.00
11041;BME280;5573;49.592;8.662;2023-12-20T04:49:45;99993.19;;;4.55;100.00
11041;BME280;5573;49.592;8.662;2023-12-20T04:52:13;99996.31;;;4.58;100.00
11041;BME280;5573;49.592;8.662;2023-12-20T04:54:41;100001.28;;;4.53;100.00
11041;BME280;5573;49.592;8.662;2023-12-20T04:57:12;100004.41;;;4.49;100.00
11041;BME280;5573;49.592;8.662;2023-12-20T04:59:39;100000.94;;;4.48;100.00
11041;BME280;5573;49.592;8.662;2023-12-20T05:02:07;100003.91;;;4.53;100.00
11041;BME280;5573;49.592;8.662;2023-12-20T05:04:36;99993.19;;;4.55;100.00
11041;BME280;5573;49.592;8.662;2023-12-20T05:07:04;100009.19;;;4.61;100.00
11041;BME280;5573;49.592;8.662;2023-12-20T05:09:32;100010.31;;;4.59;100.00
11041;BME280;5573;49.592;8.662;2023-12-20T05:12:00;100012.47;;;4.55;100.00
11041;BME280;5573;49.592;8.662;2023-12-20T05:14:29;100019.41;;;4.56;100.00
11041;BME280;5573;49.592;8.662;2023-12-20T05:16:58;99999.97;;;4.33;100.00
11041;BME280;5573;49.592;8.662;2023-12-20T05:19:26;100022.53;;;4.52;100.00
11041;BME280;5573;49.592;8.662;2023-12-20T05:21:54;100019.91;;;4.52;100.00
11041;BME280;5573;49.592;8.662;2023-12-20T05:24:22;100032.25;;;4.51;100.00
11041;BME280;5573;49.592;8.662;2023-12-20T05:26:50;100033.91;;;4.52;100.00
11041;BME280;5573;49.592;8.662;2023-12-20T05:29:19;100038.69;;;4.57;100.00
11041;BME280;5573;49.592;8.662;2023-12-20T05:31:48;100041.97;;;4.59;100.00
11041;BME280;5573;49.592;8.662;2023-12-20T05:34:16;100040.34;;;4.50;100.00
11041;BME280;5573;49.592;8.662;2023-12-20T05:36:44;100039.53;;;4.57;100.00
11041;BME280;5573;49.592;8.662;2023-12-20T05:39:12;100045.44;;;4.51;100.00
11041;BME280;5573;49.592;8.662;2023-12-20T05:41:40;100048.75;;;4.45;100.00
11041;BME280;5573;49.592;8.662;2023-12-20T05:44:07;100059.97;;;4.47;100.00
11041;BME280;5573;49.592;8.662;2023-12-20T05:46:36;100061.63;;;4.48;100.00
11041;BME280;5573;49.592;8.662;2023-12-20T05:49:05;100068.53;;;4.57;100.00
11041;BME280;5573;49.592;8.662;2023-12-20T05:51:33;100070.50;;;4.55;100.00
11041;BME280;5573;49.592;8.662;2023-12-20T05:54:01;100075.28;;;4.52;100.00
11041;BME280;5573;49.592;8.662;2023-12-20T05:56:29;100085.69;;;4.61;100.00
11041;BME280;5573;49.592;8.662;2023-12-20T05:58:57;100098.41;;;4.58;100.00
11041;BME280;5573;49.592;8.662;2023-12-20T06:01:25;100091.78;;;4.62;100.00
11041;BME280;5573;49.592;8.662;2023-12-20T06:03:53;100093.91;;;4.66;100.00
11041;BME280;5573;49.592;8.662;2023-12-20T06:06:23;100094.59;;;4.60;100.00
11041;BME280;5573;49.592;8.662;2023-12-20T06:08:50;100088.63;;;4.58;100.00
11041;BME280;5573;49.592;8.662;2023-12-20T06:11:18;100096.56;;;4.58;100.00
11041;BME280;5573;49.592;8.662;2023-12-20T06:13:46;100107.78;;;4.60;100.00
11041;BME280;5573;49.592;8.662;2023-12-20T06:16:15;100109.91;;;4.49;100.00
11041;BME280;5573;49.592;8.662;2023-12-20T06:18:43;100110.09;;;4.31;100.00
11041;BME280;5573;49.592;8.662;2023-12-20T06:21:11;100098.53;;;4.16;100.00
11041;BME280;5573;49.592;8.662;2023-12-20T06:23:41;100103.44;;;4.03;100.00
11041;BME280;5573;49.592;8.662;2023-12-20T06:26:09;100099.16;;;3.94;100.00
11041;BME280;5573;49.592;8.662;2023-12-20T06:28:37;100105.88;;;3.88;100.00
11041;BME280;5573;49.592;8.662;2023-12-20T06:31:07;100113.97;;;4.03;100.00
11041;BME280;5573;49.592;8.662;2023-12-20T06:33:36;100115.13;;;4.00;100.00
11041;BME280;5573;49.592;8.662;2023-12-20T06:36:04;100111.84;;;3.98;100.00
11041;BME280;5573;49.592;8.662;2023-12-20T06:38:32;100105.75;;;3.98;100.00
11041;BME280;5573;49.592;8.662;2023-12-20T06:41:01;100102.47;;;4.12;100.00
11041;BME280;5573;49.592;8.662;2023-12-20T06:43:29;100119.25;;;4.11;100.00
11041;BME280;5573;49.592;8.662;2023-12-20T06:46:14;100126.38;;;4.26;100.00
11041;BME280;5573;49.592;8.662;2023-12-20T06:48:44;100116.69;;;4.35;100.00
11041;BME280;5573;49.592;8.662;2023-12-20T06:51:13;100119.00;;;4.38;100.00
11041;BME280;5573;49.592;8.662;2023-12-20T06:53:42;100121.44;;;4.39;100.00
11041;BME280;5573;49.592;8.662;2023-12-20T06:56:11;100108.09;;;4.41;100.00
11041;BME280;5573;49.592;8.662;2023-12-20T06:58:44;100102.47;;;4.36;100.00
11041;BME280;5573;49.592;8.662;2023-12-20T07:01:12;100108.28;;;4.31;100.00
11041;BME280;5573;49.592;8.662;2023-12-20T07:03:40;100114.19;;;4.25;100.00
11041;BME280;5573;49.592;8.662;2023-12-20T07:06:08;100102.50;;;4.28;100.00
11041;BME280;5573;49.592;8.662;2023-12-20T07:08:36;100100.50;;;4.22;100.00
11041;BME280;5573;49.592;8.662;2023-12-20T07:11:04;100110.84;;;4.07;100.00
11041;BME280;5573;49.592;8.662;2023-12-20T07:13:33;100121.41;;;4.07;100.00
11041;BME280;5573;49.592;8.662;2023-12-20T07:16:01;100115.63;;;4.04;100.00
11041;BME280;5573;49.592;8.662;2023-12-20T07:18:29;100120.56;;;3.90;100.00
11041;BME280;5573;49.592;8.662;2023-12-20T07:20:57;100111.00;;;3.89;100.00
11041;BME280;5573;49.592;8.662;2023-12-20T07:23:24;100106.00;;;3.78;100.00
11041;BME280;5573;49.592;8.662;2023-12-20T07:25:53;100108.66;;;3.78;100.00
11041;BME280;5573;49.592;8.662;2023-12-20T07:28:20;100105.66;;;3.73;100.00
11041;BME280;5573;49.592;8.662;2023-12-20T07:30:50;100112.44;;;3.76;100.00
11041;BME280;5573;49.592;8.662;2023-12-20T07:33:18;100117.53;;;3.77;100.00
11041;BME280;5573;49.592;8.662;2023-12-20T07:35:46;100122.44;;;3.72;100.00
11041;BME280;5573;49.592;8.662;2023-12-20T07:38:14;100129.72;;;3.78;100.00
11041;BME280;5573;49.592;8.662;2023-12-20T07:40:42;100142.06;;;3.78;100.00
11041;BME280;5573;49.592;8.662;2023-12-20T07:43:10;100141.28;;;3.85;100.00
11041;BME280;5573;49.592;8.662;2023-12-20T07:45:38;100149.19;;;3.85;100.00
11041;BME280;5573;49.592;8.662;2023-12-20T07:48:07;100142.09;;;3.86;100.00
11041;BME280;5573;49.592;8.662;2023-12-20T07:50:35;100135.59;;;3.64;100.00
11041;BME280;5573;49.592;8.662;2023-12-20T07:53:03;100145.50;;;3.70;100.00
11041;BME280;5573;49.592;8.662;2023-12-20T07:55:31;100140.31;;;3.86;100.00
11041;BME280;5573;49.592;8.662;2023-12-20T07:58:00;100146.91;;;3.90;100.00
11041;BME280;5573;49.592;8.662;2023-12-20T08:00:28;100151.53;;;3.97;100.00
11041;BME280;5573;49.592;8.662;2023-12-20T08:02:55;100160.78;;;4.09;100.00
11041;BME280;5573;49.592;8.662;2023-12-20T08:05:25;100166.25;;;4.15;100.00
11041;BME280;5573;49.592;8.662;2023-12-20T08:07:53;100157.16;;;4.10;100.00
11041;BME280;5573;49.592;8.662;2023-12-20T08:10:20;100144.66;;;4.12;100.00
11041;BME280;5573;49.592;8.662;2023-12-20T08:12:48;100156.69;;;4.22;100.00
11041;BME280;5573;49.592;8.662;2023-12-20T08:15:16;100166.44;;;4.30;100.00
11041;BME280;5573;49.592;8.662;2023-12-20T08:17:44;100171.34;;;4.25;100.00
11041;BME280;5573;49.592;8.662;2023-12-20T08:20:12;100165.13;;;4.34;100.00
11041;BME280;5573;49.592;8.662;2023-12-20T08:22:50;100162.81;;;4.31;100.00
11041;BME280;5573;49.592;8.662;2023-12-20T08:25:17;100163.28;;;4.18;100.00
11041;BME280;5573;49.592;8.662;2023-12-20T08:27:45;100172.34;;;4.16;100.00
11041;BME280;5573;49.592;8.662;2023-12-20T08:30:14;100144.59;;;3.96;100.00
11041;BME280;5573;49.592;8.662;2023-12-20T08:32:43;100172.84;;;4.19;100.00
11041;BME280;5573;49.592;8.662;2023-12-20T08:35:11;100147.09;;;3.97;100.00
11041;BME280;5573;49.592;8.662;2023-12-20T08:37:39;100167.88;;;4.08;100.00
11041;BME280;5573;49.592;8.662;2023-12-20T08:40:09;100135.53;;;3.90;100.00
11041;BME280;5573;49.592;8.662;2023-12-20T08:42:37;100183.22;;;4.21;100.00
11041;BME280;5573;49.592;8.662;2023-12-20T08:45:06;100178.78;;;4.21;100.00
11041;BME280;5573;49.592;8.662;2023-12-20T08:47:34;100189.34;;;4.29;100.00
11041;BME280;5573;49.592;8.662;2023-12-20T08:50:03;100183.56;;;4.26;100.00
11041;BME280;5573;49.592;8.662;2023-12-20T08:52:31;100192.66;;;4.31;100.00
11041;BME280;5573;49.592;8.662;2023-12-20T08:54:58;100182.28;;;4.38;100.00
11041;BME280;5573;49.592;8.662;2023-12-20T08:57:28;100181.28;;;4.47;100.00
11041;BME280;5573;49.592;8.662;2023-12-20T08:59:56;100189.06;;;4.49;99.72
11041;BME280;5573;49.592;8.662;2023-12-20T09:02:23;100192.03;;;4.54;99.77
11041;BME280;5573;49.592;8.662;2023-12-20T09:04:51;100198.13;;;4.54;100.00
11041;BME280;5573;49.592;8.662;2023-12-20T09:07:22;100193.88;;;4.61;99.07
11041;BME280;5573;49.592;8.662;2023-12-20T09:09:51;100200.44;;;4.65;98.77
11041;BME280;5573;49.592;8.662;2023-12-20T09:12:19;100201.13;;;4.75;98.13
11041;BME280;5573;49.592;8.662;2023-12-20T09:14:50;100192.19;;;4.76;99.13
11041;BME280;5573;49.592;8.662;2023-12-20T09:17:18;100190.56;;;4.75;99.96
11041;BME280;5573;49.592;8.662;2023-12-20T09:19:47;100197.19;;;4.87;99.10
11041;BME280;5573;49.592;8.662;2023-12-20T09:22:15;100199.47;;;4.82;99.28
11041;BME280;5573;49.592;8.662;2023-12-20T09:24:42;100207.41;;;4.91;97.77
11041;BME280;5573;49.592;8.662;2023-12-20T09:27:10;100193.22;;;4.83;99.78
11041;BME280;5573;49.592;8.662;2023-12-20T09:29:38;100193.38;;;4.82;99.36
11041;BME280;5573;49.592;8.662;2023-12-20T09:32:07;100205.09;;;4.87;99.62
11041;BME280;5573;49.592;8.662;2023-12-20T09:34:35;100201.13;;;4.92;99.71
11041;BME280;5573;49.592;8.662;2023-12-20T09:37:04;100206.75;;;4.97;98.70
11041;BME280;5573;49.592;8.662;2023-12-20T09:39:34;100205.91;;;5.04;98.92
11041;BME280;5573;49.592;8.662;2023-12-20T09:42:03;100210.38;;;5.04;100.00
11041;BME280;5573;49.592;8.662;2023-12-20T09:44:32;100215.00;;;5.10;98.92
11041;BME280;5573;49.592;8.662;2023-12-20T09:47:02;100208.06;;;5.09;99.07
11041;BME280;5573;49.592;8.662;2023-12-20T09:49:32;100213.69;;;5.06;100.00
11041;BME280;5573;49.592;8.662;2023-12-20T09:52:00;100212.66;;;5.15;99.70
11041;BME280;5573;49.592;8.662;2023-12-20T09:54:29;100202.78;;;5.09;99.13
11041;BME280;5573;49.592;8.662;2023-12-20T09:56:57;100208.56;;;5.12;98.95
11041;BME280;5573;49.592;8.662;2023-12-20T09:59:24;100208.56;;;5.20;97.30
11041;BME280;5573;49.592;8.662;2023-12-20T10:01:55;100215.81;;;5.26;96.64
11041;BME280;5573;49.592;8.662;2023-12-20T10:04:24;100210.53;;;5.26;97.12
11041;BME280;5573;49.592;8.662;2023-12-20T10:07:02;100200.09;;;5.33;96.03
11041;BME280;5573;49.592;8.662;2023-12-20T10:09:33;100206.22;;;5.25;97.46
11041;BME280;5573;49.592;8.662;2023-12-20T10:12:03;100199.13;;;5.26;96.82
11041;BME280;5573;49.592;8.662;2023-12-20T10:14:32;100201.44;;;5.29;96.50
11041;BME280;5573;49.592;8.662;2023-12-20T10:17:02;100203.41;;;5.35;96.32
11041;BME280;5573;49.592;8.662;2023-12-20T10:19:30;100191.66;;;5.46;94.67
11041;BME280;5573;49.592;8.662;2023-12-20T10:22:00;100195.97;;;5.47;95.92
11041;BME280;5573;49.592;8.662;2023-12-20T10:24:28;100196.47;;;5.50;95.85
11041;BME280;5573;49.592;8.662;2023-12-20T10:27:03;100190.47;;;5.56;95.51
11041;BME280;5573;49.592;8.662;2023-12-20T10:29:33;100196.47;;;5.50;94.20
11041;BME280;5573;49.592;8.662;2023-12-20T10:32:23;100192.00;;;5.51;95.97
11041;BME280;5573;49.592;8.662;2023-12-20T10:34:52;100176.63;;;5.54;94.55
11041;BME280;5573;49.592;8.662;2023-12-20T10:37:22;100183.03;;;5.60;95.87
11041;BME280;5573;49.592;8.662;2023-12-20T10:39:52;100178.25;;;5.55;96.15
11041;BME280;5573;49.592;8.662;2023-12-20T10:42:25;100178.59;;;5.60;95.08
11041;BME280;5573;49.592;8.662;2023-12-20T10:44:53;100181.56;;;5.65;95.54
11041;BME280;5573;49.592;8.662;2023-12-20T10:47:22;100168.53;;;5.56;95.49
11041;BME280;5573;49.592;8.662;2023-12-20T10:49:52;100176.59;;;5.62;94.53
11041;BME280;5573;49.592;8.662;2023-12-20T10:52:23;100169.06;;;5.43;95.11
11041;BME280;5573;49.592;8.662;2023-12-20T10:54:51;100174.00;;;5.54;94.21
11041;BME280;5573;49.592;8.662;2023-12-20T10:57:19;100179.22;;;5.62;92.38
11041;BME280;5573;49.592;8.662;2023-12-20T10:59:49;100174.41;;;5.66;91.41
11041;BME280;5573;49.592;8.662;2023-12-20T11:02:19;100163.84;;;5.66;90.77
11041;BME280;5573;49.592;8.662;2023-12-20T11:04:50;100167.31;;;5.66;92.16
11041;BME280;5573;49.592;8.662;2023-12-20T11:07:28;100160.22;;;5.67;91.34
11041;BME280;5573;49.592;8.662;2023-12-20T11:09:59;100150.13;;;5.70;90.11
11041;BME280;5573;49.592;8.662;2023-12-20T11:12:36;100155.91;;;5.66;90.37
11041;BME280;5573;49.592;8.662;2023-12-20T11:15:06;100151.78;;;5.71;90.45
11041;BME280;5573;49.592;8.662;2023-12-20T11:17:35;100145.19;;;5.67;91.30
11041;BME280;5573;49.592;8.662;2023-12-20T11:20:06;100140.56;;;5.69;91.25
11041;BME280;5573;49.592;8.662;2023-12-20T11:22:39;100132.13;;;5.66;91.13
11041;BME280;5573;49.592;8.662;2023-12-20T11:25:18;100141.56;;;5.68;90.67
11041;BME280;5573;49.592;8.662;2023-12-20T11:28:09;100147.34;;;5.64;91.92
11041;BME280;5573;49.592;8.662;2023-12-20T11:30:46;100143.53;;;5.66;91.38
11041;BME280;5573;49.592;8.662;2023-12-20T11:33:15;100131.53;;;5.56;90.66
11041;BME280;5573;49.592;8.662;2023-12-20T11:35:45;100132.69;;;5.61;90.35
11041;BME280;5573;49.592;8.662;2023-12-20T11:38:14;100132.69;;;5.61;89.63
11041;BME280;5573;49.592;8.662;2023-12-20T11:40:42;100136.94;;;5.62;89.21
11041;BME280;5573;49.592;8.662;2023-12-20T11:43:11;100131.66;;;5.62;87.97
11041;BME280;5573;49.592;8.662;2023-12-20T11:45:49;100141.25;;;5.63;89.85
11041;BME280;5573;49.592;8.662;2023-12-20T11:48:18;100138.31;;;5.58;89.75
11041;BME280;5573;49.592;8.662;2023-12-20T11:50:46;100136.78;;;5.64;88.85
11041;BME280;5573;49.592;8.662;2023-12-20T11:53:16;100139.94;;;5.59;90.31
11041;BME280;5573;49.592;8.662;2023-12-20T11:55:47;100146.22;;;5.58;89.71
11041;BME280;5573;49.592;8.662;2023-12-20T11:58:15;100142.56;;;5.59;90.37
11041;BME280;5573;49.592;8.662;2023-12-20T12:00:43;100136.66;;;5.57;90.34
11041;BME280;5573;49.592;8.662;2023-12-20T12:03:14;100144.25;;;5.52;90.63
11041;BME280;5573;49.592;8.662;2023-12-20T12:05:42;100131.84;;;5.61;90.79
11041;BME280;5573;49.592;8.662;2023-12-20T12:08:10;100129.88;;;5.55;90.63
11041;BME280;5573;49.592;8.662;2023-12-20T12:10:39;100125.94;;;5.51;90.21
11041;BME280;5573;49.592;8.662;2023-12-20T12:13:07;100123.59;;;5.56;90.25
11041;BME280;5573;49.592;8.662;2023-12-20T12:15:36;100134.00;;;5.57;90.91
11041;BME280;5573;49.592;8.662;2023-12-20T12:18:05;100129.19;;;5.61;91.41
11041;BME280;5573;49.592;8.662;2023-12-20T12:20:33;100124.06;;;5.59;88.69
11041;BME280;5573;49.592;8.662;2023-12-20T12:23:04;100134.84;;;5.58;89.59
11041;BME280;5573;49.592;8.662;2023-12-20T12:25:35;100132.00;;;5.59;89.82
11041;BME280;5573;49.592;8.662;2023-12-20T12:28:10;100120.78;;;5.65;89.14
11041;BME280;5573;49.592;8.662;2023-12-20T12:30:38;100127.06;;;5.56;89.39
11041;BME280;5573;49.592;8.662;2023-12-20T12:33:19;100122.25;;;5.60;89.89
11041;BME280;5573;49.592;8.662;2023-12-20T12:35:48;100130.03;;;5.61;90.03
11041;BME280;5573;49.592;8.662;2023-12-20T12:38:15;100125.09;;;5.58;90.08
11041;BME280;5573;49.592;8.662;2023-12-20T12:40:45;100126.84;;;5.66;88.68
11041;BME280;5573;49.592;8.662;2023-12-20T12:43:14;100126.06;;;5.65;89.52
11041;BME280;5573;49.592;8.662;2023-12-20T12:45:42;100130.03;;;5.61;89.33
11041;BME280;5573;49.592;8.662;2023-12-20T12:48:10;100116.78;;;5.69;90.34
11041;BME280;5573;49.592;8.662;2023-12-20T12:50:38;100129.19;;;5.61;91.22
11041;BME280;5573;49.592;8.662;2023-12-20T12:53:06;100137.28;;;5.59;90.00
11041;BME280;5573;49.592;8.662;2023-12-20T12:55:34;100127.06;;;5.56;89.50
11041;BME280;5573;49.592;8.662;2023-12-20T12:58:02;100130.53;;;5.57;88.58
11041;BME280;5573;49.592;8.662;2023-12-20T13:00:32;100124.06;;;5.59;88.41
11041;BME280;5573;49.592;8.662;2023-12-20T13:03:00;100117.81;;;5.60;88.44
11041;BME280;5573;49.592;8.662;2023-12-20T13:05:28;100123.72;;;5.62;89.53
11041;BME280;5573;49.592;8.662;2023-12-20T13:07:57;100112.88;;;5.57;89.35
11041;BME280;5573;49.592;8.662;2023-12-20T13:10:25;100113.69;;;5.58;89.71
11041;BME280;5573;49.592;8.662;2023-12-20T13:12:53;100098.50;;;5.52;90.32
11041;BME280;5573;49.592;8.662;2023-12-20T13:15:21;100098.03;;;5.48;90.45